KLKV/LKV METAR and TAF weather

Enter ICAO airport designator
Station Type Date Time Source
KLKV METAR 2019/02/17 16:16 UTC NOAA

KLKV 171616Z AUTO 32004KT 10SM BKN003 M08/M09 A2986 RMK AO2 FZRANO


Station Type Date Time Source
KLKV Decoded METAR 2019/02/17 16:16 UTC NOAA

Lakeview, Lake County Airport, OR, United States (KLKV) 42-10N 120-24W
Feb 17, 2019 - 11:16 AM EST / 2019.02.17 1616 UTC
Wind: from the NW (320 degrees) at 5 MPH (4 KT):0
Visibility: 10 mile(s):0
Sky conditions: mostly cloudy
Temperature: 17 F (-8 C)
Windchill: 8 F (-13 C):1
Dew Point: 15 F (-9 C)
Relative Humidity: 92%
Pressure (altimeter): 29.86 in. Hg (1011 hPa)
ob: KLKV 171616Z AUTO 32004KT 10SM BKN003 M08/M09 A2986 RMK AO2 FZRANO
cycle: 16

Station Type Date Time Source
KLKV TAF UTC NOAA

Error!


Example: see airport list